createdAt,value
2018-06-10T00:00:05.599Z,19.94
2018-06-10T00:01:06.344Z,19.88
2018-06-10T00:02:06.218Z,19.88
2018-06-10T00:03:06.009Z,19.88
2018-06-10T00:04:05.847Z,19.88
2018-06-10T00:05:05.699Z,19.88
2018-06-10T00:06:06.733Z,19.88
2018-06-10T00:07:05.939Z,19.88
2018-06-10T00:08:06.004Z,19.88
2018-06-10T00:09:06.128Z,19.88
2018-06-10T00:10:06.786Z,19.88
2018-06-10T00:11:05.947Z,19.88
2018-06-10T00:12:10.947Z,19.88
2018-06-10T00:13:05.697Z,19.88
2018-06-10T00:14:06.376Z,19.88
2018-06-10T00:15:06.447Z,19.81
2018-06-10T00:16:06.574Z,19.81
2018-06-10T00:17:06.008Z,19.81
2018-06-10T00:18:06.015Z,19.75
2018-06-10T00:19:05.795Z,19.81
2018-06-10T00:20:05.819Z,19.75
2018-06-10T00:21:06.443Z,19.81
2018-06-10T00:22:05.689Z,19.81
2018-06-10T00:23:05.636Z,19.81
2018-06-10T00:24:06.457Z,19.75
2018-06-10T00:25:05.776Z,19.75
2018-06-10T00:26:11.424Z,19.75
2018-06-10T00:27:06.024Z,19.75
2018-06-10T00:28:06.259Z,19.75
2018-06-10T00:29:06.158Z,19.75
2018-06-10T00:30:06.466Z,19.75
2018-06-10T00:31:05.834Z,19.75
2018-06-10T00:32:05.953Z,19.75
2018-06-10T00:33:06.554Z,19.75
2018-06-10T00:34:06.578Z,19.75
2018-06-10T00:35:05.496Z,19.75
2018-06-10T00:36:05.689Z,19.75
2018-06-10T00:37:06.248Z,19.75
2018-06-10T00:38:05.592Z,19.75
2018-06-10T00:39:06.418Z,19.75
2018-06-10T00:40:06.039Z,19.75
2018-06-10T00:41:05.553Z,19.75
2018-06-10T00:42:11.185Z,19.75
2018-06-10T00:43:05.868Z,19.75
2018-06-10T00:44:05.940Z,19.69
2018-06-10T00:45:06.101Z,19.69
2018-06-10T00:46:05.693Z,19.62
2018-06-10T00:47:10.731Z,19.62
2018-06-10T00:48:06.415Z,19.62
2018-06-10T00:49:05.957Z,19.62
2018-06-10T00:50:06.413Z,19.62
2018-06-10T00:51:07.151Z,19.69
2018-06-10T00:52:06.644Z,19.69
2018-06-10T00:53:06.226Z,19.69
2018-06-10T00:54:06.677Z,19.69
2018-06-10T00:55:06.184Z,19.69
2018-06-10T00:56:06.113Z,19.69
2018-06-10T00:57:06.496Z,19.62
2018-06-10T00:58:05.933Z,19.62
2018-06-10T00:59:05.451Z,19.56
2018-06-10T01:00:05.820Z,19.56
2018-06-10T01:01:06.589Z,19.56
2018-06-10T01:02:06.776Z,19.56
2018-06-10T01:03:05.641Z,19.62
2018-06-10T01:04:06.119Z,19.56
2018-06-10T01:05:06.275Z,19.56
2018-06-10T01:06:06.178Z,19.56
2018-06-10T01:07:10.901Z,19.56
2018-06-10T01:08:06.522Z,19.56
2018-06-10T01:09:05.619Z,19.56
2018-06-10T01:10:05.734Z,19.56
2018-06-10T01:11:05.683Z,19.56
2018-06-10T01:12:11.411Z,19.56
2018-06-10T01:13:07.159Z,19.56
2018-06-10T01:14:06.250Z,19.56
2018-06-10T01:15:05.853Z,19.56
2018-06-10T01:16:06.401Z,19.50
2018-06-10T01:17:06.012Z,19.50
2018-06-10T01:18:05.686Z,19.50
2018-06-10T01:19:05.694Z,19.50
2018-06-10T01:20:05.781Z,19.44
2018-06-10T01:21:05.534Z,19.44
2018-06-10T01:22:05.856Z,19.44
2018-06-10T01:23:06.469Z,19.44
2018-06-10T01:24:05.860Z,19.44
2018-06-10T01:25:05.687Z,19.44
2018-06-10T01:26:06.499Z,19.38
2018-06-10T01:27:06.587Z,19.38
2018-06-10T01:28:06.645Z,19.38
2018-06-10T01:29:06.348Z,19.38
2018-06-10T01:30:06.053Z,19.38
2018-06-10T01:31:05.857Z,19.38
2018-06-10T01:32:10.539Z,19.38
2018-06-10T01:33:05.984Z,19.38
2018-06-10T01:34:10.812Z,19.38
2018-06-10T01:35:05.466Z,19.38
2018-06-10T01:36:06.227Z,19.31
2018-06-10T01:37:05.768Z,19.38
2018-06-10T01:38:05.900Z,19.38
2018-06-10T01:39:06.720Z,19.38
2018-06-10T01:40:11.454Z,19.38
2018-06-10T01:41:11.188Z,19.31
2018-06-10T01:42:06.545Z,19.31
2018-06-10T01:43:06.113Z,19.31
2018-06-10T01:44:06.018Z,19.31
2018-06-10T01:45:05.891Z,19.25
2018-06-10T01:46:06.497Z,19.25
2018-06-10T01:47:05.470Z,19.25
2018-06-10T01:48:05.615Z,19.31
2018-06-10T01:49:05.546Z,19.31
2018-06-10T01:50:06.168Z,19.31
2018-06-10T01:51:05.945Z,19.31
2018-06-10T01:52:06.088Z,19.25
2018-06-10T01:53:10.863Z,19.25
2018-06-10T01:54:06.441Z,19.25
2018-06-10T01:55:06.277Z,19.25
2018-06-10T01:56:05.687Z,19.25
2018-06-10T01:57:06.633Z,19.19
2018-06-10T01:58:05.773Z,19.19
2018-06-10T01:59:05.836Z,19.19
2018-06-10T02:00:05.605Z,19.19
2018-06-10T02:01:06.290Z,19.12
2018-06-10T02:02:06.500Z,19.12
2018-06-10T02:03:06.291Z,19.19
2018-06-10T02:04:06.083Z,19.19
2018-06-10T02:05:05.849Z,19.19
2018-06-10T02:06:05.932Z,19.19
2018-06-10T02:07:05.741Z,19.19
2018-06-10T02:08:05.763Z,19.19
2018-06-10T02:09:06.761Z,19.19
2018-06-10T02:10:06.604Z,19.12
2018-06-10T02:11:06.512Z,19.12
2018-06-10T02:12:06.292Z,19.12
2018-06-10T02:13:06.418Z,19.12
2018-06-10T02:14:11.134Z,19.12
2018-06-10T02:15:05.719Z,19.12
2018-06-10T02:16:05.615Z,19.12
2018-06-10T02:17:05.719Z,19.12
2018-06-10T02:18:06.243Z,19.12
2018-06-10T02:19:10.689Z,19.12
2018-06-10T02:20:06.516Z,19.12
2018-06-10T02:21:06.338Z,19.06
2018-06-10T02:22:06.101Z,19.06
2018-06-10T02:23:06.328Z,19.06
2018-06-10T02:24:06.023Z,19.06
2018-06-10T02:25:06.169Z,19.00
2018-06-10T02:26:05.688Z,19.06
2018-06-10T02:27:05.629Z,19.00
2018-06-10T02:28:05.703Z,19.00
2018-06-10T02:29:05.782Z,19.06
2018-06-10T02:30:06.202Z,19.00
2018-06-10T02:31:05.839Z,19.00
2018-06-10T02:32:06.542Z,19.00
2018-06-10T02:33:06.412Z,19.00
2018-06-10T02:34:05.738Z,19.00
2018-06-10T02:35:05.859Z,19.00
2018-06-10T02:36:06.010Z,19.00
2018-06-10T02:37:06.088Z,19.00
2018-06-10T02:38:06.189Z,19.00
2018-06-10T02:39:06.239Z,19.00
2018-06-10T02:40:06.398Z,19.00
2018-06-10T02:41:06.448Z,18.94
2018-06-10T02:42:06.387Z,18.94
2018-06-10T02:43:05.940Z,19.00
2018-06-10T02:44:06.496Z,19.00
2018-06-10T02:45:06.697Z,18.94
2018-06-10T02:46:06.107Z,19.00
2018-06-10T02:47:05.861Z,18.94
2018-06-10T02:48:05.959Z,18.94
2018-06-10T02:49:10.979Z,18.94
2018-06-10T02:50:05.630Z,19.00
2018-06-10T02:51:06.299Z,19.00
2018-06-10T02:52:05.938Z,18.94
2018-06-10T02:53:05.782Z,19.00
2018-06-10T02:54:05.690Z,19.00
2018-06-10T02:55:06.737Z,19.00
2018-06-10T02:56:05.892Z,19.00
2018-06-10T02:57:06.335Z,18.94
2018-06-10T02:58:06.340Z,19.00
2018-06-10T02:59:06.501Z,19.00
2018-06-10T03:00:06.259Z,19.00
2018-06-10T03:01:06.268Z,19.00
2018-06-10T03:02:06.590Z,19.00
2018-06-10T03:03:06.520Z,19.00
2018-06-10T03:04:05.695Z,19.00
2018-06-10T03:05:10.630Z,19.00
2018-06-10T03:06:06.283Z,19.00
2018-06-10T03:07:05.731Z,19.00
2018-06-10T03:08:05.864Z,19.00
2018-06-10T03:09:06.637Z,19.00
2018-06-10T03:10:06.438Z,19.00
2018-06-10T03:11:06.332Z,19.00
2018-06-10T03:12:05.911Z,19.00
2018-06-10T03:13:06.758Z,19.00
2018-06-10T03:14:05.709Z,19.00
2018-06-10T03:15:06.844Z,18.94
2018-06-10T03:16:10.861Z,18.94
2018-06-10T03:17:06.421Z,19.00
2018-06-10T03:18:06.382Z,19.00
2018-06-10T03:19:06.412Z,19.00
2018-06-10T03:20:06.428Z,19.00
2018-06-10T03:21:06.019Z,19.00
2018-06-10T03:22:06.137Z,19.00
2018-06-10T03:23:06.014Z,18.94
2018-06-10T03:24:06.087Z,18.94
2018-06-10T03:25:06.170Z,18.94
2018-06-10T03:26:06.087Z,18.94
2018-06-10T03:27:06.351Z,18.94
2018-06-10T03:28:06.705Z,19.00
2018-06-10T03:29:05.823Z,18.94
2018-06-10T03:30:05.945Z,18.94
2018-06-10T03:31:06.182Z,19.00
2018-06-10T03:32:05.782Z,19.00
2018-06-10T03:33:06.503Z,19.00
2018-06-10T03:34:06.352Z,19.06
2018-06-10T03:35:06.444Z,19.06
2018-06-10T03:36:06.421Z,19.06
2018-06-10T03:37:06.268Z,19.06
2018-06-10T03:38:06.329Z,19.12
2018-06-10T03:39:05.569Z,19.12
2018-06-10T03:40:05.798Z,19.12
2018-06-10T03:41:05.945Z,19.12
2018-06-10T03:42:06.890Z,19.12
2018-06-10T03:43:06.306Z,19.12
2018-06-10T03:44:06.379Z,19.12
2018-06-10T03:45:06.566Z,19.19
2018-06-10T03:46:06.093Z,19.19
2018-06-10T03:47:06.016Z,19.19
2018-06-10T03:48:06.569Z,19.19
2018-06-10T03:49:06.235Z,19.19
2018-06-10T03:50:05.961Z,19.12
2018-06-10T03:51:05.983Z,19.19
2018-06-10T03:52:06.381Z,19.19
2018-06-10T03:53:06.111Z,19.19
2018-06-10T03:54:06.030Z,19.19
2018-06-10T03:55:05.619Z,19.19
2018-06-10T03:56:05.846Z,19.19
2018-06-10T03:57:06.405Z,19.19
2018-06-10T03:58:05.702Z,19.19
2018-06-10T03:59:06.041Z,19.19
2018-06-10T04:00:05.949Z,19.19
2018-06-10T04:01:05.600Z,19.25
2018-06-10T04:02:06.248Z,19.19
2018-06-10T04:03:06.031Z,19.25
2018-06-10T04:04:11.021Z,19.25
2018-06-10T04:05:06.150Z,19.25
2018-06-10T04:06:05.931Z,19.25
2018-06-10T04:07:05.861Z,19.25
2018-06-10T04:08:05.864Z,19.25
2018-06-10T04:09:05.938Z,19.31
2018-06-10T04:10:05.945Z,19.31
2018-06-10T04:11:06.108Z,19.31
2018-06-10T04:12:10.951Z,19.31
2018-06-10T04:13:06.434Z,19.38
2018-06-10T04:14:06.521Z,19.38
2018-06-10T04:15:06.268Z,19.38
2018-06-10T04:16:05.783Z,19.38
2018-06-10T04:17:06.038Z,19.38
2018-06-10T04:18:06.431Z,19.38
2018-06-10T04:19:06.112Z,19.44
2018-06-10T04:20:06.256Z,19.44
2018-06-10T04:21:06.279Z,19.44
2018-06-10T04:22:06.180Z,19.44
2018-06-10T04:23:05.783Z,19.50
2018-06-10T04:24:06.593Z,19.50
2018-06-10T04:25:06.186Z,19.50
2018-06-10T04:26:06.521Z,19.50
2018-06-10T04:27:05.615Z,19.56
2018-06-10T04:28:05.768Z,19.56
2018-06-10T04:29:05.878Z,19.56
2018-06-10T04:30:05.894Z,19.56
2018-06-10T04:31:05.537Z,19.62
2018-06-10T04:32:06.429Z,19.62
2018-06-10T04:33:07.650Z,19.69
2018-06-10T04:34:06.425Z,19.69
2018-06-10T04:35:06.105Z,19.69
2018-06-10T04:36:06.386Z,19.69
2018-06-10T04:37:05.957Z,19.75
2018-06-10T04:38:06.238Z,19.88
2018-06-10T04:39:06.028Z,19.94
2018-06-10T04:40:06.080Z,20.00
2018-06-10T04:41:05.544Z,20.06
2018-06-10T04:42:05.710Z,20.12
2018-06-10T04:43:06.078Z,20.12
2018-06-10T04:44:06.535Z,20.12
2018-06-10T04:45:05.873Z,20.12
2018-06-10T04:46:06.183Z,20.12
2018-06-10T04:47:06.253Z,20.12
2018-06-10T04:48:06.436Z,20.12
2018-06-10T04:49:06.440Z,20.12
2018-06-10T04:50:05.621Z,20.19
2018-06-10T04:51:05.618Z,20.19
2018-06-10T04:52:05.545Z,20.19
2018-06-10T04:53:11.358Z,20.19
2018-06-10T04:54:06.023Z,20.19
2018-06-10T04:55:05.879Z,20.19
2018-06-10T04:56:06.669Z,20.19
2018-06-10T04:57:06.028Z,20.25
2018-06-10T04:58:06.120Z,20.25
2018-06-10T04:59:06.770Z,20.25
2018-06-10T05:00:05.675Z,20.25
2018-06-10T05:01:06.301Z,20.38
2018-06-10T05:02:06.871Z,20.56
2018-06-10T05:03:05.824Z,20.56
2018-06-10T05:04:05.719Z,20.56
2018-06-10T05:05:06.089Z,20.56
2018-06-10T05:06:10.801Z,20.56
2018-06-10T05:07:06.506Z,20.56
2018-06-10T05:08:06.469Z,20.75
2018-06-10T05:09:05.548Z,20.75
2018-06-10T05:10:06.583Z,20.88
2018-06-10T05:11:06.587Z,20.81
2018-06-10T05:12:06.050Z,20.81
2018-06-10T05:13:06.334Z,20.81
2018-06-10T05:14:06.195Z,20.81
2018-06-10T05:15:06.098Z,20.81
2018-06-10T05:16:06.269Z,20.81
2018-06-10T05:17:05.761Z,20.81
2018-06-10T05:18:06.419Z,20.88
2018-06-10T05:19:06.256Z,20.88
2018-06-10T05:20:07.316Z,20.88
2018-06-10T05:21:06.347Z,20.94
2018-06-10T05:22:05.927Z,20.94
2018-06-10T05:23:06.014Z,20.94
2018-06-10T05:24:06.190Z,20.94
2018-06-10T05:25:06.348Z,21.00
2018-06-10T05:26:05.742Z,21.00
2018-06-10T05:27:06.184Z,21.06
2018-06-10T05:28:05.793Z,21.12
2018-06-10T05:29:05.820Z,21.19
2018-06-10T05:30:05.948Z,21.19
2018-06-10T05:31:05.552Z,21.31
2018-06-10T05:32:05.945Z,21.44
2018-06-10T05:33:06.003Z,21.50
2018-06-10T05:34:05.939Z,21.50
2018-06-10T05:35:06.034Z,21.50
2018-06-10T05:36:06.175Z,21.50
2018-06-10T05:37:05.779Z,21.56
2018-06-10T05:38:06.765Z,21.62
2018-06-10T05:39:05.621Z,21.69
2018-06-10T05:40:05.610Z,21.75
2018-06-10T05:41:06.709Z,21.81
2018-06-10T05:42:06.339Z,21.81
2018-06-10T05:43:06.747Z,22.00
2018-06-10T05:44:06.028Z,22.12
2018-06-10T05:45:06.088Z,22.12
2018-06-10T05:46:06.350Z,22.12
2018-06-10T05:47:06.576Z,22.12
2018-06-10T05:48:06.881Z,22.12
2018-06-10T05:49:05.872Z,22.19
2018-06-10T05:50:10.574Z,22.19
2018-06-10T05:51:06.023Z,22.25
2018-06-10T05:52:05.608Z,22.25
2018-06-10T05:53:06.518Z,22.25
2018-06-10T05:54:10.947Z,22.25
2018-06-10T05:55:05.622Z,22.25
2018-06-10T05:56:06.734Z,22.31
2018-06-10T05:57:05.612Z,22.31
2018-06-10T05:58:05.785Z,22.31
2018-06-10T05:59:05.715Z,22.31
2018-06-10T06:00:05.775Z,22.38
2018-06-10T06:01:05.797Z,22.38
2018-06-10T06:02:06.171Z,22.38
2018-06-10T06:03:05.810Z,22.44
2018-06-10T06:04:05.538Z,22.44
2018-06-10T06:05:06.550Z,22.50
2018-06-10T06:06:05.708Z,22.50
2018-06-10T06:07:05.702Z,22.50
2018-06-10T06:08:05.550Z,22.56
2018-06-10T06:09:16.826Z,22.56
2018-06-10T06:10:06.103Z,22.62
2018-06-10T06:11:06.106Z,22.69
2018-06-10T06:12:06.255Z,22.69
2018-06-10T06:13:05.986Z,22.75
2018-06-10T06:14:05.550Z,22.75
2018-06-10T06:15:06.631Z,22.75
2018-06-10T06:16:06.485Z,22.81
2018-06-10T06:17:05.832Z,22.81
2018-06-10T06:18:06.254Z,22.81
2018-06-10T06:19:06.769Z,22.81
2018-06-10T06:20:06.488Z,22.88
2018-06-10T06:21:05.556Z,22.88
2018-06-10T06:22:05.625Z,22.88
2018-06-10T06:23:05.694Z,22.94
2018-06-10T06:24:05.716Z,22.94
2018-06-10T06:25:05.784Z,22.94
2018-06-10T06:26:10.460Z,22.94
2018-06-10T06:27:06.116Z,22.94
2018-06-10T06:28:06.334Z,22.94
2018-06-10T06:29:06.019Z,22.94
2018-06-10T06:30:06.105Z,22.94
2018-06-10T06:31:06.842Z,23.00
2018-06-10T06:32:06.416Z,22.94
2018-06-10T06:33:05.792Z,23.00
2018-06-10T06:34:06.417Z,23.00
2018-06-10T06:35:06.510Z,23.00
2018-06-10T06:36:06.066Z,23.00
2018-06-10T06:37:06.221Z,23.00
2018-06-10T06:38:06.282Z,23.00
2018-06-10T06:39:06.288Z,23.00
2018-06-10T06:40:06.440Z,23.00
2018-06-10T06:41:06.138Z,23.00
2018-06-10T06:42:11.215Z,23.00
2018-06-10T06:43:06.701Z,23.06
2018-06-10T06:44:11.452Z,23.06
2018-06-10T06:45:06.069Z,23.06
2018-06-10T06:46:05.795Z,23.06
2018-06-10T06:47:05.933Z,23.06
2018-06-10T06:48:05.957Z,23.06
2018-06-10T06:49:06.532Z,23.06
2018-06-10T06:50:06.421Z,23.06
2018-06-10T06:51:06.004Z,23.06
2018-06-10T06:52:06.250Z,23.06
2018-06-10T06:53:06.023Z,23.06
2018-06-10T06:54:06.095Z,23.06
2018-06-10T06:55:06.052Z,23.06
2018-06-10T06:56:05.865Z,23.06
2018-06-10T06:57:06.026Z,23.06
2018-06-10T06:58:06.010Z,23.06
2018-06-10T06:59:06.504Z,23.06
2018-06-10T07:00:05.561Z,23.06
2018-06-10T07:01:05.809Z,23.06
2018-06-10T07:02:05.864Z,23.12
2018-06-10T07:03:11.455Z,23.12
2018-06-10T07:04:06.264Z,23.12
2018-06-10T07:05:05.710Z,23.12
2018-06-10T07:06:05.996Z,23.12
2018-06-10T07:07:05.744Z,23.19
2018-06-10T07:08:05.983Z,23.19
2018-06-10T07:09:06.498Z,23.19
2018-06-10T07:10:11.226Z,23.19
2018-06-10T07:11:05.941Z,23.19
2018-06-10T07:12:05.552Z,23.19
2018-06-10T07:13:06.652Z,23.19
2018-06-10T07:14:05.707Z,23.25
2018-06-10T07:15:10.770Z,23.25
2018-06-10T07:16:06.350Z,23.25
2018-06-10T07:17:06.745Z,23.25
2018-06-10T07:18:06.169Z,23.31
2018-06-10T07:19:05.655Z,23.31
2018-06-10T07:20:05.997Z,23.31
2018-06-10T07:21:05.881Z,23.38
2018-06-10T07:22:06.045Z,23.38
2018-06-10T07:23:06.493Z,23.38
2018-06-10T07:24:06.285Z,23.44
2018-06-10T07:25:05.990Z,23.44
2018-06-10T07:26:11.385Z,23.44
2018-06-10T07:27:06.136Z,23.50
2018-06-10T07:28:06.269Z,23.50
2018-06-10T07:29:06.496Z,23.56
2018-06-10T07:30:06.009Z,23.56
2018-06-10T07:31:06.138Z,23.56
2018-06-10T07:32:05.713Z,23.62
2018-06-10T07:33:05.960Z,23.62
2018-06-10T07:34:06.028Z,23.62
2018-06-10T07:35:10.941Z,23.69
2018-06-10T07:36:06.506Z,23.69
2018-06-10T07:37:06.202Z,23.69
2018-06-10T07:38:11.298Z,23.75
2018-06-10T07:39:05.781Z,23.75
2018-06-10T07:40:11.530Z,23.81
2018-06-10T07:41:10.589Z,23.81
2018-06-10T07:42:06.354Z,23.81
2018-06-10T07:43:06.285Z,23.88
2018-06-10T07:44:06.275Z,23.88
2018-06-10T07:45:06.353Z,23.88
2018-06-10T07:46:06.518Z,23.94
2018-06-10T07:47:06.449Z,23.94
2018-06-10T07:48:06.561Z,24.00
2018-06-10T07:49:06.880Z,24.00
2018-06-10T07:50:05.546Z,24.00
2018-06-10T07:51:06.471Z,24.06
2018-06-10T07:52:06.401Z,24.12
2018-06-10T07:53:06.292Z,24.12
2018-06-10T07:54:06.489Z,24.19
2018-06-10T07:55:05.959Z,24.19
2018-06-10T07:56:11.218Z,24.25
2018-06-10T07:57:06.537Z,24.25
2018-06-10T07:58:05.855Z,24.31
2018-06-10T07:59:06.167Z,24.31
2018-06-10T08:00:06.527Z,24.38
2018-06-10T08:01:06.589Z,24.44
2018-06-10T08:02:05.798Z,24.44
2018-06-10T08:03:05.732Z,24.44
2018-06-10T08:04:06.371Z,24.50
2018-06-10T08:05:06.327Z,24.50
2018-06-10T08:06:05.790Z,24.56
2018-06-10T08:07:05.849Z,24.56
2018-06-10T08:08:06.169Z,24.62
2018-06-10T08:09:05.734Z,24.62
2018-06-10T08:10:10.759Z,24.62
2018-06-10T08:11:06.371Z,24.62
2018-06-10T08:12:05.813Z,24.62
2018-06-10T08:13:05.594Z,24.69
2018-06-10T08:14:05.780Z,24.69
2018-06-10T08:15:05.762Z,24.69
2018-06-10T08:16:06.558Z,24.69
2018-06-10T08:17:06.630Z,24.75
2018-06-10T08:18:11.581Z,24.75
2018-06-10T08:19:06.895Z,24.75
2018-06-10T08:20:06.023Z,24.75
2018-06-10T08:21:06.271Z,24.81
2018-06-10T08:22:06.558Z,24.81
2018-06-10T08:23:06.576Z,24.81
2018-06-10T08:24:05.604Z,24.81
2018-06-10T08:25:11.292Z,24.81
2018-06-10T08:26:05.973Z,24.88
2018-06-10T08:27:05.919Z,24.88
2018-06-10T08:28:05.758Z,24.88
2018-06-10T08:29:06.096Z,24.88
2018-06-10T08:30:06.257Z,24.94
2018-06-10T08:31:06.258Z,24.94
2018-06-10T08:32:06.194Z,24.94
2018-06-10T08:33:06.150Z,24.94
2018-06-10T08:34:06.355Z,24.94
2018-06-10T08:35:05.556Z,24.94
2018-06-10T08:36:06.870Z,24.94
2018-06-10T08:37:05.996Z,24.94
2018-06-10T08:38:10.847Z,24.94
2018-06-10T08:39:05.785Z,24.94
2018-06-10T08:40:10.839Z,24.94
2018-06-10T08:41:05.738Z,24.94
2018-06-10T08:42:05.547Z,24.94
2018-06-10T08:43:06.425Z,24.94
2018-06-10T08:44:06.492Z,24.94
2018-06-10T08:45:05.621Z,24.94
2018-06-10T08:46:06.335Z,25.00
2018-06-10T08:47:05.706Z,24.94
2018-06-10T08:48:05.863Z,25.00
2018-06-10T08:49:05.999Z,24.94
2018-06-10T08:50:05.941Z,25.00
2018-06-10T08:51:05.554Z,24.94
2018-06-10T08:52:05.634Z,24.94
2018-06-10T08:53:06.591Z,24.94
2018-06-10T08:54:05.541Z,24.94
2018-06-10T08:55:05.780Z,24.94
2018-06-10T08:56:05.930Z,24.94
2018-06-10T08:57:05.710Z,24.94
2018-06-10T08:58:10.793Z,24.94
2018-06-10T08:59:06.206Z,24.94
2018-06-10T09:00:10.977Z,24.94
2018-06-10T09:01:05.557Z,24.88
2018-06-10T09:02:05.634Z,24.88
2018-06-10T09:03:05.851Z,24.88
2018-06-10T09:04:05.781Z,24.88
2018-06-10T09:05:06.076Z,24.88
2018-06-10T09:06:05.953Z,24.88
2018-06-10T09:07:06.376Z,24.81
2018-06-10T09:08:06.333Z,24.81
2018-06-10T09:09:06.532Z,24.81
2018-06-10T09:10:06.513Z,24.81
2018-06-10T09:11:06.344Z,24.75
2018-06-10T09:12:06.453Z,24.81
2018-06-10T09:13:06.427Z,24.75
2018-06-10T09:14:06.312Z,24.75
2018-06-10T09:15:06.076Z,24.75
2018-06-10T09:16:06.166Z,24.75
2018-06-10T09:17:05.865Z,24.75
2018-06-10T09:18:05.543Z,24.69
2018-06-10T09:19:05.850Z,24.69
2018-06-10T09:20:06.389Z,24.69
2018-06-10T09:21:05.730Z,24.69
2018-06-10T09:22:05.547Z,24.69
2018-06-10T09:23:05.853Z,24.69
2018-06-10T09:24:05.611Z,24.69
2018-06-10T09:25:05.868Z,24.69
2018-06-10T09:26:06.159Z,24.69
2018-06-10T09:27:05.956Z,24.69
2018-06-10T09:28:06.230Z,24.69
2018-06-10T09:29:11.139Z,24.69
2018-06-10T09:30:05.645Z,24.69
2018-06-10T09:31:06.557Z,24.69
2018-06-10T09:32:06.317Z,24.69
2018-06-10T09:33:06.265Z,24.69
2018-06-10T09:34:05.700Z,24.69
2018-06-10T09:35:06.181Z,24.69
2018-06-10T09:36:05.970Z,24.69
2018-06-10T09:37:06.240Z,24.69
2018-06-10T09:38:06.181Z,24.75
2018-06-10T09:39:06.524Z,24.75
2018-06-10T09:40:06.478Z,24.75
2018-06-10T09:41:07.257Z,24.75
2018-06-10T09:42:06.412Z,24.75
2018-06-10T09:43:06.183Z,24.81
2018-06-10T09:44:06.293Z,24.81
2018-06-10T09:45:06.517Z,24.81
2018-06-10T09:46:10.966Z,24.88
2018-06-10T09:47:06.338Z,24.88
2018-06-10T09:48:06.000Z,24.88
2018-06-10T09:49:05.776Z,24.88
2018-06-10T09:50:05.779Z,24.94
2018-06-10T09:51:06.428Z,24.94
2018-06-10T09:52:05.714Z,25.00
2018-06-10T09:53:05.589Z,25.00
2018-06-10T09:54:05.704Z,25.00
2018-06-10T09:55:06.596Z,25.00
2018-06-10T09:56:05.963Z,25.00
2018-06-10T09:57:05.699Z,25.00
2018-06-10T09:58:05.642Z,25.06
2018-06-10T09:59:06.467Z,25.06
2018-06-10T10:00:06.348Z,25.06
2018-06-10T10:01:06.189Z,25.12
2018-06-10T10:02:05.956Z,25.12
2018-06-10T10:03:06.204Z,25.12
2018-06-10T10:04:06.331Z,25.19
2018-06-10T10:05:05.843Z,25.19
2018-06-10T10:06:05.712Z,25.25
2018-06-10T10:07:05.543Z,25.25
2018-06-10T10:08:06.465Z,25.31
2018-06-10T10:09:11.418Z,25.31
2018-06-10T10:10:06.055Z,25.38
2018-06-10T10:11:05.872Z,25.38
2018-06-10T10:12:05.877Z,25.44
2018-06-10T10:13:05.760Z,25.44
2018-06-10T10:14:06.166Z,25.50
2018-06-10T10:15:05.699Z,25.56
2018-06-10T10:16:05.575Z,25.56
2018-06-10T10:17:06.516Z,25.62
2018-06-10T10:18:06.599Z,25.69
2018-06-10T10:19:06.413Z,25.75
2018-06-10T10:20:06.262Z,25.75
2018-06-10T10:21:05.878Z,25.81
2018-06-10T10:22:05.946Z,25.81
2018-06-10T10:23:06.016Z,25.88
2018-06-10T10:24:06.574Z,25.88
2018-06-10T10:25:06.416Z,25.88
2018-06-10T10:26:05.618Z,25.94
2018-06-10T10:27:05.549Z,25.94
2018-06-10T10:28:10.563Z,25.94
2018-06-10T10:29:10.654Z,26.00
2018-06-10T10:30:06.335Z,26.06
2018-06-10T10:31:06.091Z,26.06
2018-06-10T10:32:06.341Z,26.06
2018-06-10T10:33:06.420Z,26.12
2018-06-10T10:34:05.634Z,26.12
2018-06-10T10:35:05.722Z,26.19
2018-06-10T10:36:05.717Z,26.19
2018-06-10T10:37:05.616Z,26.19
2018-06-10T10:38:05.712Z,26.25
2018-06-10T10:39:05.625Z,26.25
2018-06-10T10:40:06.253Z,26.31
2018-06-10T10:41:06.336Z,26.31
2018-06-10T10:42:05.624Z,26.38
2018-06-10T10:43:05.537Z,26.44
2018-06-10T10:44:05.537Z,26.44
2018-06-10T10:45:06.224Z,26.44
2018-06-10T10:46:06.035Z,26.50
2018-06-10T10:47:06.162Z,26.56
2018-06-10T10:48:06.329Z,26.56
2018-06-10T10:49:06.140Z,26.62
2018-06-10T10:50:05.461Z,26.69
2018-06-10T10:51:06.199Z,26.75
2018-06-10T10:52:05.783Z,26.81
2018-06-10T10:53:05.939Z,26.88
2018-06-10T10:54:05.887Z,26.94
2018-06-10T10:55:06.377Z,27.00
2018-06-10T10:56:06.690Z,27.00
2018-06-10T10:57:06.250Z,27.06
2018-06-10T10:58:06.426Z,27.19
2018-06-10T10:59:05.952Z,27.25
2018-06-10T11:00:06.346Z,27.31
2018-06-10T11:01:06.255Z,27.38
2018-06-10T11:02:05.822Z,27.44
2018-06-10T11:03:05.705Z,27.44
2018-06-10T11:04:06.809Z,27.50
2018-06-10T11:05:05.733Z,27.56
2018-06-10T11:06:05.780Z,27.62
2018-06-10T11:07:06.343Z,27.62
2018-06-10T11:08:05.606Z,27.69
2018-06-10T11:09:05.827Z,27.69
2018-06-10T11:10:05.893Z,27.75
2018-06-10T11:11:06.177Z,27.75
2018-06-10T11:12:06.736Z,27.75
2018-06-10T11:13:05.777Z,27.75
2018-06-10T11:14:05.861Z,27.81
2018-06-10T11:15:06.259Z,27.81
2018-06-10T11:16:06.251Z,27.88
2018-06-10T11:17:07.234Z,27.88
2018-06-10T11:18:06.026Z,27.94
2018-06-10T11:19:06.193Z,27.94
2018-06-10T11:20:06.337Z,27.94
2018-06-10T11:21:06.181Z,27.94
2018-06-10T11:22:05.706Z,27.94
2018-06-10T11:23:06.585Z,27.94
2018-06-10T11:24:05.950Z,28.00
2018-06-10T11:25:06.267Z,28.00
2018-06-10T11:26:05.944Z,28.06
2018-06-10T11:27:06.355Z,28.12
2018-06-10T11:28:06.106Z,28.06
2018-06-10T11:29:06.346Z,28.06
2018-06-10T11:30:05.938Z,28.06
2018-06-10T11:31:06.443Z,28.00
2018-06-10T11:32:06.320Z,28.00
2018-06-10T11:33:06.822Z,27.94
2018-06-10T11:34:06.708Z,28.00
2018-06-10T11:35:05.953Z,28.00
2018-06-10T11:36:05.983Z,27.94
2018-06-10T11:37:05.464Z,27.94
2018-06-10T11:38:06.478Z,27.94
2018-06-10T11:39:06.776Z,27.94
2018-06-10T11:40:06.618Z,28.00
2018-06-10T11:41:06.245Z,28.00
2018-06-10T11:42:06.416Z,28.06
2018-06-10T11:43:05.969Z,28.06
2018-06-10T11:44:06.292Z,28.06
2018-06-10T11:45:06.024Z,28.12
2018-06-10T11:46:06.021Z,28.12
2018-06-10T11:47:05.755Z,28.06
2018-06-10T11:48:06.417Z,28.00
2018-06-10T11:49:05.972Z,28.00
2018-06-10T11:50:05.545Z,28.00
2018-06-10T11:51:05.705Z,27.94
2018-06-10T11:52:10.664Z,27.94
2018-06-10T11:53:06.173Z,27.88
2018-06-10T11:54:06.193Z,27.88
2018-06-10T11:55:05.935Z,27.88
2018-06-10T11:56:06.264Z,27.88
2018-06-10T11:57:06.314Z,27.88
2018-06-10T11:58:06.149Z,27.81
2018-06-10T11:59:05.795Z,27.81
2018-06-10T12:00:06.646Z,27.81
2018-06-10T12:01:05.806Z,27.75
2018-06-10T12:02:10.701Z,27.75
2018-06-10T12:03:06.516Z,27.69
2018-06-10T12:04:06.444Z,27.69
2018-06-10T12:05:06.248Z,27.62
2018-06-10T12:06:06.381Z,27.56
2018-06-10T12:07:11.279Z,27.56
2018-06-10T12:08:05.895Z,27.44
2018-06-10T12:09:05.865Z,27.44
2018-06-10T12:10:11.606Z,27.38
2018-06-10T12:11:06.185Z,27.38
2018-06-10T12:12:06.283Z,27.31
2018-06-10T12:13:06.072Z,27.25
2018-06-10T12:14:11.046Z,27.19
2018-06-10T12:15:05.708Z,27.19
2018-06-10T12:16:05.777Z,27.12
2018-06-10T12:17:05.884Z,27.12
2018-06-10T12:18:05.902Z,27.06
2018-06-10T12:19:11.535Z,27.00
2018-06-10T12:20:06.179Z,27.00
2018-06-10T12:21:06.279Z,26.94
2018-06-10T12:22:05.779Z,26.94
2018-06-10T12:23:06.303Z,26.88
2018-06-10T12:24:05.509Z,26.88
2018-06-10T12:25:06.591Z,26.81
2018-06-10T12:26:11.322Z,26.81
2018-06-10T12:27:05.857Z,26.75
2018-06-10T12:28:05.866Z,26.75
2018-06-10T12:29:05.861Z,26.75
2018-06-10T12:30:06.090Z,26.75
2018-06-10T12:31:06.346Z,26.75
2018-06-10T12:32:06.301Z,26.69
2018-06-10T12:33:05.939Z,26.69
2018-06-10T12:34:05.853Z,26.69
2018-06-10T12:35:05.831Z,26.69
2018-06-10T12:36:05.625Z,26.62
2018-06-10T12:37:06.073Z,26.62
2018-06-10T12:38:06.269Z,26.62
2018-06-10T12:39:06.295Z,26.62
2018-06-10T12:40:06.148Z,26.62
2018-06-10T12:41:06.010Z,26.62
2018-06-10T12:42:06.678Z,26.62
2018-06-10T12:43:06.592Z,26.69
2018-06-10T12:44:06.654Z,26.69
2018-06-10T12:45:06.500Z,26.69
2018-06-10T12:46:06.347Z,26.75
2018-06-10T12:47:06.122Z,26.75
2018-06-10T12:48:06.003Z,26.81
2018-06-10T12:49:06.357Z,26.88
2018-06-10T12:50:06.273Z,26.94
2018-06-10T12:51:05.708Z,27.00
2018-06-10T12:52:06.351Z,27.00